CheckWX is a tool to help pilots better visualize weather data.  It is not intended as a substitute for an official pre-flight weather briefing.

10:48:37 UTC

SARI TAF
Cataratas Del Iguazú International Airport
Puerto Iguazu, Argentina
TAF SARI 190500Z 1906/2006 07005KT CAVOK TX27/1918Z TN16/1910Z PROB30 1908/1911 3000 BR NSC BECMG 1913/1915 9999 SCT020 SCT060

May-19@
06:00 UTC

May-19 @ 06:00 UTC

May-19@
13:00 UTC

May-19 @ 13:00 UTC

TAF SARI 190500Z 1906/2006 07005KT CAVOK TX27/1918Z TN16/1910Z
Wind
  • 070° at 5 KTS
Cloud Levels
  • No significant clouds

May-19@
08:00 UTC

May-19 @ 08:00 UTC

May-19@
11:00 UTC

May-19 @ 11:00 UTC

PROB30 1908/1911 3000 BR NSC

Probable - 30% Likelihood

Probable - 30% Likelihood during this time.

Conditions
Mist
Cloud Levels
  • No significant clouds

May-19@
13:00 UTC

May-19 @ 13:00 UTC

May-20@
06:00 UTC

May-20 @ 06:00 UTC

BECMG 1913/1915 9999 SCT020 SCT060

Becoming

Becoming Conditions expected by Sun, May 19, 2019 @ 15:00 UTC

Wind
  • 070° at 5 KTS
Cloud Levels
  • Scattered at 2,000' AGL
  • Scattered at 6,000' AGL